UDYZ/EVN METAR and TAF weather

Enter ICAO airport designator
Station Type Date Time Source
UDYZ METAR 2018/12/15 04:00 UTC NOAA

UDYZ 150400Z 24001KT 2300 BR NSC M01/M02 Q1027 R09/010070 NOSIG


Station Type Date Time Source
UDYZ Decoded METAR 2018/12/15 04:00 UTC NOAA

Station name not available
Dec 14, 2018 - 11:00 PM EST / 2018.12.15 0400 UTC
Wind: from the WSW (240 degrees) at 1 MPH (1 KT):0
Visibility: 1 mile(s):0
Weather: mist
Temperature: 30 F (-1 C)
Dew Point: 28 F (-2 C)
Relative Humidity: 92%
Pressure (altimeter): 30.33 in. Hg (1027 hPa)
ob: UDYZ 150400Z 24001KT 2300 BR NSC M01/M02 Q1027 R09/010070 NOSIG
cycle: 4

Station Type Date Time Source
UDYZ TAF 2018/12/14 18:00 UTC NOAA

TAF UDYZ 141715Z 1418/1518 04006KT 6000 SCT040 BKN100
TEMPO 1421/1506 2000 BR


Example: see airport list